createdAt,value
2023-02-15T00:00:12.508Z,9.01
2023-02-15T00:03:00.346Z,9.08
2023-02-15T00:05:30.591Z,9.13
2023-02-15T00:07:58.477Z,8.98
2023-02-15T00:10:26.683Z,8.95
2023-02-15T00:12:54.524Z,9.06
2023-02-15T00:15:22.928Z,8.95
2023-02-15T00:17:50.795Z,8.75
2023-02-15T00:20:20.448Z,8.77
2023-02-15T00:22:48.319Z,8.72
2023-02-15T00:25:16.511Z,8.51
2023-02-15T00:27:44.406Z,8.47
2023-02-15T00:30:13.132Z,8.48
2023-02-15T00:32:40.995Z,8.39
2023-02-15T00:35:10.766Z,8.47
2023-02-15T00:37:38.764Z,8.65
2023-02-15T00:40:07.981Z,8.51
2023-02-15T00:42:35.968Z,8.44
2023-02-15T00:45:04.268Z,8.47
2023-02-15T00:47:33.538Z,8.36
2023-02-15T00:50:01.972Z,8.49
2023-02-15T00:52:30.076Z,8.35
2023-02-15T00:54:58.408Z,8.29
2023-02-15T00:57:26.246Z,8.26
2023-02-15T00:59:54.509Z,8.36
2023-02-15T01:02:22.524Z,8.37
2023-02-15T01:04:50.789Z,8.18
2023-02-15T01:07:18.734Z,8.29
2023-02-15T01:09:47.009Z,8.26
2023-02-15T01:12:14.994Z,8.30
2023-02-15T01:14:43.343Z,8.30
2023-02-15T01:17:11.442Z,8.25
2023-02-15T01:19:39.885Z,8.13
2023-02-15T01:22:08.399Z,8.07
2023-02-15T01:24:37.637Z,8.09
2023-02-15T01:27:05.628Z,8.25
2023-02-15T01:29:33.885Z,8.21
2023-02-15T01:32:02.092Z,8.23
2023-02-15T01:34:31.129Z,8.06
2023-02-15T01:36:59.028Z,8.05
2023-02-15T01:39:27.633Z,8.14
2023-02-15T01:41:55.661Z,7.98
2023-02-15T01:45:00.177Z,8.10
2023-02-15T01:47:42.292Z,8.05
2023-02-15T01:50:22.641Z,8.10
2023-02-15T01:52:56.957Z,8.35
2023-02-15T01:55:29.759Z,8.30
2023-02-15T01:57:57.736Z,8.19
2023-02-15T02:00:26.457Z,8.23
2023-02-15T02:02:58.467Z,8.19
2023-02-15T02:05:27.476Z,8.10
2023-02-15T02:07:59.847Z,8.01
2023-02-15T02:10:29.396Z,8.24
2023-02-15T02:13:06.066Z,8.15
2023-02-15T02:15:57.735Z,8.12
2023-02-15T02:18:34.626Z,7.93
2023-02-15T02:21:31.669Z,8.17
2023-02-15T02:24:12.647Z,8.14
2023-02-15T02:26:59.094Z,8.05
2023-02-15T02:29:42.199Z,7.99
2023-02-15T02:32:48.817Z,8.14
2023-02-15T02:35:45.930Z,7.96
2023-02-15T02:38:28.736Z,8.09
2023-02-15T02:41:19.028Z,8.24
2023-02-15T02:43:50.509Z,8.33
2023-02-15T02:46:27.581Z,7.96
2023-02-15T02:48:57.889Z,8.10
2023-02-15T02:51:25.945Z,8.09
2023-02-15T02:53:58.293Z,7.78
2023-02-15T02:56:33.197Z,7.67
2023-02-15T02:59:09.007Z,7.86
2023-02-15T03:02:01.027Z,7.92
2023-02-15T03:04:37.716Z,7.95
2023-02-15T03:07:11.466Z,8.05
2023-02-15T03:09:44.478Z,7.84
2023-02-15T03:12:16.369Z,7.85
2023-02-15T03:14:51.649Z,8.03
2023-02-15T03:17:23.959Z,8.04
2023-02-15T03:19:55.999Z,8.03
2023-02-15T03:22:34.710Z,7.78
2023-02-15T03:25:16.300Z,7.57
2023-02-15T03:27:48.774Z,7.53
2023-02-15T03:30:22.781Z,7.64
2023-02-15T03:32:52.967Z,7.62
2023-02-15T03:35:26.004Z,7.42
2023-02-15T03:38:02.164Z,7.40
2023-02-15T03:40:59.804Z,7.39
2023-02-15T03:44:00.574Z,7.30
2023-02-15T03:46:54.084Z,7.23
2023-02-15T03:49:47.381Z,7.46
2023-02-15T03:52:17.712Z,7.37
2023-02-15T03:54:48.834Z,7.39
2023-02-15T03:57:39.766Z,7.40
2023-02-15T04:00:35.983Z,7.22
2023-02-15T04:03:16.292Z,7.28
2023-02-15T04:05:45.553Z,7.20
2023-02-15T04:08:14.279Z,7.09
2023-02-15T04:10:54.493Z,7.22
2023-02-15T04:13:32.981Z,7.23
2023-02-15T04:16:08.153Z,7.27
2023-02-15T04:19:01.300Z,7.34
2023-02-15T04:21:49.539Z,7.37
2023-02-15T04:24:37.008Z,7.35
2023-02-15T04:27:06.838Z,7.33
2023-02-15T04:29:35.268Z,7.33
2023-02-15T04:32:03.782Z,7.50
2023-02-15T04:34:32.126Z,7.30
2023-02-15T04:37:00.016Z,7.19
2023-02-15T04:39:28.269Z,7.23
2023-02-15T04:41:56.218Z,7.20
2023-02-15T04:44:24.524Z,7.22
2023-02-15T04:46:52.297Z,7.17
2023-02-15T04:49:20.543Z,7.13
2023-02-15T04:51:48.573Z,6.95
2023-02-15T04:54:16.838Z,7.09
2023-02-15T04:56:44.780Z,7.13
2023-02-15T04:59:13.566Z,7.05
2023-02-15T05:01:41.436Z,7.20
2023-02-15T05:04:10.568Z,6.88
2023-02-15T05:06:38.424Z,6.60
2023-02-15T05:09:06.657Z,6.47
2023-02-15T05:11:34.633Z,6.44
2023-02-15T05:14:02.886Z,6.29
2023-02-15T05:16:30.911Z,6.44
2023-02-15T05:18:59.455Z,6.53
2023-02-15T05:21:27.605Z,6.53
2023-02-15T05:23:56.035Z,6.66
2023-02-15T05:26:44.237Z,6.57
2023-02-15T05:29:12.518Z,6.63
2023-02-15T05:31:40.635Z,6.47
2023-02-15T05:34:09.072Z,6.53
2023-02-15T05:36:36.912Z,6.57
2023-02-15T05:39:07.043Z,6.51
2023-02-15T05:41:34.861Z,6.57
2023-02-15T05:44:03.115Z,6.55
2023-02-15T05:46:31.044Z,6.61
2023-02-15T05:48:59.381Z,6.74
2023-02-15T05:51:27.291Z,6.73
2023-02-15T05:53:55.684Z,6.63
2023-02-15T05:56:23.555Z,6.71
2023-02-15T05:58:54.288Z,6.75
2023-02-15T06:01:24.125Z,6.59
2023-02-15T06:03:53.318Z,6.59
2023-02-15T06:06:21.182Z,6.71
2023-02-15T06:08:49.830Z,6.45
2023-02-15T06:11:17.795Z,6.38
2023-02-15T06:13:46.076Z,6.33
2023-02-15T06:16:13.970Z,6.40
2023-02-15T06:18:42.382Z,6.45
2023-02-15T06:21:10.348Z,6.45
2023-02-15T06:23:39.053Z,6.58
2023-02-15T06:26:06.905Z,6.64
2023-02-15T06:28:35.242Z,6.39
2023-02-15T06:31:03.128Z,6.47
2023-02-15T06:33:37.527Z,6.45
2023-02-15T06:36:05.484Z,6.48
2023-02-15T06:38:33.870Z,6.68
2023-02-15T06:41:01.805Z,6.72
2023-02-15T06:43:29.909Z,6.77
2023-02-15T06:45:57.863Z,6.79
2023-02-15T06:48:26.222Z,6.85
2023-02-15T06:50:54.071Z,6.85
2023-02-15T06:53:22.231Z,6.85
2023-02-15T06:55:50.042Z,6.92
2023-02-15T06:58:18.273Z,6.97
2023-02-15T07:00:46.192Z,6.97
2023-02-15T07:03:16.115Z,7.05
2023-02-15T07:05:44.932Z,7.21
2023-02-15T07:08:13.199Z,7.37
2023-02-15T07:10:45.018Z,7.37
2023-02-15T07:13:13.206Z,7.30
2023-02-15T07:15:41.109Z,7.44
2023-02-15T07:18:10.541Z,7.73
2023-02-15T07:20:39.270Z,8.10
2023-02-15T07:23:07.466Z,7.80
2023-02-15T07:25:36.097Z,7.74
2023-02-15T07:28:05.264Z,7.87
2023-02-15T07:30:33.236Z,7.97
2023-02-15T07:33:39.832Z,8.10
2023-02-15T07:36:08.311Z,8.30
2023-02-15T07:38:38.302Z,8.53
2023-02-15T07:41:12.681Z,8.85
2023-02-15T07:43:43.447Z,8.85
2023-02-15T07:46:14.463Z,8.91
2023-02-15T07:48:43.417Z,8.92
2023-02-15T07:51:12.805Z,8.64
2023-02-15T07:53:41.675Z,8.70
2023-02-15T07:56:13.923Z,8.96
2023-02-15T07:58:51.862Z,9.37
2023-02-15T08:01:36.429Z,9.26
2023-02-15T08:04:07.555Z,9.48
2023-02-15T08:06:37.224Z,9.63
2023-02-15T08:09:08.588Z,9.90
2023-02-15T08:11:38.810Z,9.81
2023-02-15T08:14:13.157Z,10.14
2023-02-15T08:16:54.162Z,9.86
2023-02-15T08:19:28.013Z,9.92
2023-02-15T08:21:58.561Z,10.10
2023-02-15T08:24:30.348Z,10.47
2023-02-15T08:26:59.601Z,10.54
2023-02-15T08:29:29.562Z,10.70
2023-02-15T08:32:03.389Z,10.82
2023-02-15T08:34:35.667Z,11.20
2023-02-15T08:37:03.837Z,10.81
2023-02-15T08:39:32.213Z,10.90
2023-02-15T08:42:00.431Z,11.65
2023-02-15T08:44:28.872Z,11.57
2023-02-15T08:46:59.855Z,11.37
2023-02-15T08:49:28.042Z,11.58
2023-02-15T08:51:55.914Z,12.07
2023-02-15T08:54:24.457Z,12.47
2023-02-15T08:56:52.604Z,12.29
2023-02-15T08:59:23.478Z,12.49
2023-02-15T09:01:53.087Z,12.96
2023-02-15T09:04:22.137Z,13.22
2023-02-15T09:06:51.043Z,13.14
2023-02-15T09:09:20.355Z,13.39
2023-02-15T09:11:55.833Z,13.71
2023-02-15T09:14:28.142Z,13.86
2023-02-15T09:16:56.611Z,14.29
2023-02-15T09:19:25.832Z,14.70
2023-02-15T09:21:54.852Z,14.84
2023-02-15T09:24:22.791Z,14.89
2023-02-15T09:26:51.163Z,15.10
2023-02-15T09:29:20.041Z,15.54
2023-02-15T09:31:51.258Z,15.33
2023-02-15T09:34:22.618Z,15.91
2023-02-15T09:36:52.220Z,16.14
2023-02-15T09:39:25.412Z,16.13
2023-02-15T09:41:56.224Z,15.30
2023-02-15T09:44:33.204Z,15.01
2023-02-15T09:47:07.576Z,16.11
2023-02-15T09:49:44.173Z,16.37
2023-02-15T09:52:12.296Z,16.40
2023-02-15T09:55:09.748Z,16.38
2023-02-15T09:57:54.879Z,16.80
2023-02-15T10:00:51.020Z,16.51
2023-02-15T10:03:40.591Z,17.41
2023-02-15T10:06:33.666Z,17.72
2023-02-15T10:09:20.344Z,17.27
2023-02-15T10:11:54.590Z,17.19
2023-02-15T10:14:41.241Z,17.50
2023-02-15T10:17:27.347Z,17.39
2023-02-15T10:20:12.416Z,18.48
2023-02-15T10:22:55.116Z,18.02
2023-02-15T10:25:41.542Z,18.21
2023-02-15T10:28:28.010Z,18.82
2023-02-15T10:31:09.398Z,18.60
2023-02-15T10:33:42.483Z,18.72
2023-02-15T10:36:43.182Z,19.42
2023-02-15T10:39:23.271Z,19.63
2023-02-15T10:42:00.337Z,18.40
2023-02-15T10:44:55.962Z,18.54
2023-02-15T10:47:47.163Z,19.18
2023-02-15T10:50:38.450Z,18.85
2023-02-15T10:53:41.635Z,20.26
2023-02-15T10:56:42.728Z,19.03
2023-02-15T10:59:47.062Z,19.45
2023-02-15T11:02:38.060Z,19.55
2023-02-15T11:05:27.330Z,19.94
2023-02-15T11:08:00.621Z,20.44
2023-02-15T11:10:53.093Z,20.41
2023-02-15T11:13:25.351Z,19.72
2023-02-15T11:15:58.823Z,20.83
2023-02-15T11:18:33.924Z,20.68
2023-02-15T11:21:34.060Z,20.96
2023-02-15T11:24:03.198Z,20.54
2023-02-15T11:26:42.731Z,20.77
2023-02-15T11:29:39.960Z,21.90
2023-02-15T11:32:14.139Z,21.30
2023-02-15T11:34:59.580Z,21.61
2023-02-15T11:37:38.145Z,22.38
2023-02-15T11:40:16.278Z,22.80
2023-02-15T11:42:45.780Z,22.13
2023-02-15T11:45:32.148Z,22.27
2023-02-15T11:48:01.606Z,21.88
2023-02-15T11:50:32.195Z,22.81
2023-02-15T11:53:05.816Z,21.73
2023-02-15T11:55:36.311Z,21.91
2023-02-15T11:58:17.806Z,22.65
2023-02-15T12:00:49.151Z,22.98
2023-02-15T12:03:23.604Z,22.50
2023-02-15T12:05:58.446Z,22.48
2023-02-15T12:08:34.897Z,22.33
2023-02-15T12:11:13.392Z,21.99
2023-02-15T12:14:02.096Z,23.30
2023-02-15T12:16:35.781Z,23.39
2023-02-15T12:19:04.256Z,23.05
2023-02-15T12:21:40.978Z,22.77
2023-02-15T12:24:22.863Z,22.95
2023-02-15T12:27:38.336Z,22.71
2023-02-15T12:30:25.084Z,22.88
2023-02-15T12:32:54.359Z,22.53
2023-02-15T12:35:36.854Z,23.15
2023-02-15T12:38:26.792Z,21.90
2023-02-15T12:41:27.674Z,23.34
2023-02-15T12:44:16.227Z,23.40
2023-02-15T12:47:02.601Z,24.77
2023-02-15T12:49:39.771Z,24.77
2023-02-15T12:52:23.190Z,23.46
2023-02-15T12:54:51.818Z,23.04
2023-02-15T12:57:34.137Z,24.56
2023-02-15T13:00:25.744Z,25.00
2023-02-15T13:02:56.580Z,24.73
2023-02-15T13:05:45.118Z,24.44
2023-02-15T13:08:18.063Z,24.46
2023-02-15T13:11:05.157Z,24.95
2023-02-15T13:13:37.504Z,24.72
2023-02-15T13:16:15.313Z,24.75
2023-02-15T13:18:48.473Z,25.77
2023-02-15T13:21:37.751Z,25.54
2023-02-15T13:24:22.396Z,25.42
2023-02-15T13:26:51.023Z,26.15
2023-02-15T13:29:24.942Z,25.46
2023-02-15T13:31:54.924Z,24.88
2023-02-15T13:34:25.906Z,25.79
2023-02-15T13:37:31.486Z,24.25
2023-02-15T13:40:09.403Z,24.16
2023-02-15T13:42:54.303Z,24.50
2023-02-15T13:45:37.702Z,25.55
2023-02-15T13:48:46.869Z,25.78
2023-02-15T13:51:46.395Z,26.60
2023-02-15T13:54:33.424Z,26.47
2023-02-15T13:57:27.454Z,26.56
2023-02-15T14:00:00.036Z,26.48
2023-02-15T14:02:28.144Z,25.82
2023-02-15T14:05:32.058Z,25.30
2023-02-15T14:08:10.023Z,26.21
2023-02-15T14:10:58.372Z,26.07
2023-02-15T14:13:45.244Z,25.19
2023-02-15T14:16:30.572Z,24.61
2023-02-15T14:19:24.999Z,25.27
2023-02-15T14:22:34.704Z,25.52
2023-02-15T14:25:27.402Z,24.73
2023-02-15T14:28:17.822Z,25.55
2023-02-15T14:30:50.362Z,25.84
2023-02-15T14:33:34.765Z,26.00
2023-02-15T14:36:07.379Z,25.74
2023-02-15T14:38:57.174Z,25.86
2023-02-15T14:41:43.796Z,26.47
2023-02-15T14:44:32.274Z,26.52
2023-02-15T14:47:19.826Z,26.39
2023-02-15T14:49:47.865Z,26.26
2023-02-15T14:52:16.283Z,26.52
2023-02-15T14:54:46.992Z,26.21
2023-02-15T14:57:15.101Z,26.31
2023-02-15T14:59:58.606Z,26.39
2023-02-15T15:02:51.014Z,26.58
2023-02-15T15:05:36.140Z,26.67
2023-02-15T15:08:06.620Z,26.10
2023-02-15T15:10:43.298Z,26.25
2023-02-15T15:13:33.514Z,26.01
2023-02-15T15:16:39.710Z,25.61
2023-02-15T15:19:11.833Z,26.22
2023-02-15T15:21:51.850Z,26.48
2023-02-15T15:24:38.691Z,27.85
2023-02-15T15:27:41.301Z,27.66
2023-02-15T15:30:15.532Z,27.83
2023-02-15T15:33:13.027Z,28.83
2023-02-15T15:36:08.591Z,28.25
2023-02-15T15:38:39.208Z,27.14
2023-02-15T15:41:34.555Z,27.25
2023-02-15T15:44:20.801Z,26.51
2023-02-15T15:47:17.864Z,26.74
2023-02-15T15:49:45.849Z,26.57
2023-02-15T15:52:19.937Z,26.18
2023-02-15T15:54:51.368Z,25.68
2023-02-15T15:57:33.490Z,25.61
2023-02-15T16:00:01.401Z,25.28
2023-02-15T16:02:29.745Z,24.72
2023-02-15T16:05:10.620Z,23.89
2023-02-15T16:07:42.311Z,22.68
2023-02-15T16:10:26.981Z,22.00
2023-02-15T16:12:56.036Z,21.31
2023-02-15T16:15:27.489Z,21.27
2023-02-15T16:17:59.107Z,20.79
2023-02-15T16:20:35.317Z,20.52
2023-02-15T16:23:15.885Z,20.25
2023-02-15T16:25:55.520Z,19.90
2023-02-15T16:28:24.217Z,19.95
2023-02-15T16:31:18.586Z,19.93
2023-02-15T16:33:47.318Z,20.11
2023-02-15T16:36:24.308Z,19.82
2023-02-15T16:38:52.433Z,19.67
2023-02-15T16:41:32.310Z,19.38
2023-02-15T16:44:08.905Z,19.40
2023-02-15T16:46:45.085Z,19.39
2023-02-15T16:49:28.827Z,19.32
2023-02-15T16:52:07.086Z,18.88
2023-02-15T16:54:36.590Z,18.71
2023-02-15T16:57:04.737Z,18.58
2023-02-15T16:59:45.599Z,18.61
2023-02-15T17:02:40.204Z,18.42
2023-02-15T17:05:18.696Z,18.39
2023-02-15T17:08:15.895Z,18.14
2023-02-15T17:11:05.689Z,18.00
2023-02-15T17:13:33.886Z,18.09
2023-02-15T17:16:02.471Z,17.73
2023-02-15T17:18:34.060Z,17.66
2023-02-15T17:21:13.411Z,17.89
2023-02-15T17:23:44.376Z,17.57
2023-02-15T17:26:25.155Z,17.46
2023-02-15T17:29:00.326Z,17.43
2023-02-15T17:31:34.209Z,17.27
2023-02-15T17:34:04.057Z,17.09
2023-02-15T17:36:33.058Z,16.90
2023-02-15T17:39:07.695Z,16.76
2023-02-15T17:41:38.517Z,16.61
2023-02-15T17:44:08.907Z,16.38
2023-02-15T17:46:38.629Z,16.27
2023-02-15T17:49:07.000Z,16.21
2023-02-15T17:51:36.646Z,16.18
2023-02-15T17:54:23.165Z,16.11
2023-02-15T17:56:51.439Z,16.07
2023-02-15T17:59:19.433Z,15.88
2023-02-15T18:02:08.393Z,15.85
2023-02-15T18:04:56.332Z,15.78
2023-02-15T18:07:43.525Z,15.73
2023-02-15T18:10:35.510Z,15.72
2023-02-15T18:13:04.203Z,15.74
2023-02-15T18:15:32.238Z,15.76
2023-02-15T18:18:00.564Z,15.63
2023-02-15T18:20:35.031Z,15.47
2023-02-15T18:23:03.427Z,15.47
2023-02-15T18:25:31.351Z,15.43
2023-02-15T18:27:59.576Z,15.42
2023-02-15T18:30:27.795Z,15.21
2023-02-15T18:32:58.170Z,15.12
2023-02-15T18:35:30.133Z,15.09
2023-02-15T18:38:01.205Z,15.18
2023-02-15T18:40:29.666Z,14.87
2023-02-15T18:42:57.959Z,14.83
2023-02-15T18:45:33.307Z,14.79
2023-02-15T18:48:02.224Z,14.79
2023-02-15T18:50:33.930Z,14.71
2023-02-15T18:53:04.575Z,14.77
2023-02-15T18:55:33.965Z,14.47
2023-02-15T18:58:02.736Z,14.42
2023-02-15T19:00:35.200Z,14.24
2023-02-15T19:03:03.822Z,14.26
2023-02-15T19:05:33.354Z,14.46
2023-02-15T19:08:02.844Z,14.23
2023-02-15T19:10:33.314Z,14.22
2023-02-15T19:13:01.819Z,14.13
2023-02-15T19:15:30.759Z,14.01
2023-02-15T19:17:59.135Z,14.01
2023-02-15T19:20:34.295Z,14.04
2023-02-15T19:23:03.234Z,13.71
2023-02-15T19:25:34.506Z,13.78
2023-02-15T19:28:16.710Z,13.59
2023-02-15T19:30:45.015Z,13.54
2023-02-15T19:33:19.300Z,13.72
2023-02-15T19:35:53.348Z,13.56
2023-02-15T19:38:27.230Z,13.70
2023-02-15T19:41:02.496Z,13.51
2023-02-15T19:43:31.333Z,13.41
2023-02-15T19:45:59.897Z,13.31
2023-02-15T19:48:29.180Z,13.06
2023-02-15T19:50:58.093Z,13.07
2023-02-15T19:53:29.407Z,13.08
2023-02-15T19:55:58.725Z,12.96
2023-02-15T19:58:28.176Z,12.82
2023-02-15T20:00:57.365Z,12.95
2023-02-15T20:03:27.526Z,12.57
2023-02-15T20:05:56.874Z,12.72
2023-02-15T20:08:26.591Z,12.56
2023-02-15T20:10:55.365Z,12.72
2023-02-15T20:13:24.146Z,12.82
2023-02-15T20:15:53.466Z,12.63
2023-02-15T20:18:22.984Z,12.45
2023-02-15T20:20:54.576Z,12.50
2023-02-15T20:23:40.019Z,12.42
2023-02-15T20:26:19.540Z,12.42
2023-02-15T20:28:49.914Z,12.48
2023-02-15T20:31:21.764Z,12.34
2023-02-15T20:33:51.590Z,12.30
2023-02-15T20:36:24.017Z,12.22
2023-02-15T20:38:54.214Z,12.12
2023-02-15T20:41:38.651Z,12.22
2023-02-15T20:44:25.139Z,12.02
2023-02-15T20:46:58.558Z,11.93
2023-02-15T20:49:27.873Z,11.86
2023-02-15T20:51:57.288Z,12.13
2023-02-15T20:54:29.192Z,11.86
2023-02-15T20:56:57.405Z,11.90
2023-02-15T20:59:32.077Z,11.88
2023-02-15T21:02:02.878Z,11.95
2023-02-15T21:04:33.756Z,11.87
2023-02-15T21:07:01.773Z,11.76
2023-02-15T21:09:30.146Z,11.84
2023-02-15T21:12:01.506Z,11.78
2023-02-15T21:14:29.732Z,11.93
2023-02-15T21:16:57.723Z,11.69
2023-02-15T21:19:26.057Z,11.64
2023-02-15T21:21:54.342Z,11.56
2023-02-15T21:24:26.120Z,11.47
2023-02-15T21:26:55.660Z,11.45
2023-02-15T21:29:27.100Z,11.68
2023-02-15T21:31:55.230Z,11.61
2023-02-15T21:34:23.652Z,11.37
2023-02-15T21:36:51.551Z,11.31
2023-02-15T21:39:23.902Z,11.33
2023-02-15T21:42:12.254Z,11.31
2023-02-15T21:44:59.105Z,11.21
2023-02-15T21:47:50.774Z,11.18
2023-02-15T21:50:40.960Z,11.06
2023-02-15T21:53:18.418Z,11.16
2023-02-15T21:55:46.522Z,11.15
2023-02-15T21:58:20.711Z,11.12
2023-02-15T22:00:49.448Z,11.10
2023-02-15T22:03:17.356Z,11.11
2023-02-15T22:05:45.392Z,11.15
2023-02-15T22:08:14.388Z,10.99
2023-02-15T22:10:43.401Z,11.08
2023-02-15T22:13:19.937Z,11.06
2023-02-15T22:15:48.142Z,11.11
2023-02-15T22:18:25.178Z,10.98
2023-02-15T22:20:54.694Z,10.96
2023-02-15T22:23:23.778Z,10.99
2023-02-15T22:25:58.653Z,10.95
2023-02-15T22:28:35.872Z,10.86
2023-02-15T22:31:06.829Z,10.87
2023-02-15T22:33:35.116Z,10.95
2023-02-15T22:36:04.152Z,11.07
2023-02-15T22:38:32.568Z,10.87
2023-02-15T22:41:04.670Z,10.78
2023-02-15T22:43:41.405Z,10.62
2023-02-15T22:46:19.177Z,10.68
2023-02-15T22:48:48.448Z,10.74
2023-02-15T22:51:20.242Z,10.66
2023-02-15T22:53:49.902Z,10.65
2023-02-15T22:56:42.258Z,10.71
2023-02-15T22:59:30.032Z,10.70
2023-02-15T23:01:58.407Z,10.64
2023-02-15T23:04:29.324Z,10.60
2023-02-15T23:07:00.759Z,10.60
2023-02-15T23:09:28.478Z,10.75
2023-02-15T23:11:57.342Z,10.54
2023-02-15T23:14:34.671Z,10.45
2023-02-15T23:17:03.037Z,10.31
2023-02-15T23:19:30.812Z,10.53
2023-02-15T23:21:58.799Z,10.36
2023-02-15T23:24:34.814Z,10.53
2023-02-15T23:27:21.794Z,10.34
2023-02-15T23:29:49.611Z,10.46
2023-02-15T23:32:17.863Z,10.51
2023-02-15T23:34:45.684Z,10.32
2023-02-15T23:37:15.695Z,10.25
2023-02-15T23:40:02.394Z,10.18
2023-02-15T23:42:33.818Z,10.17
2023-02-15T23:45:02.716Z,10.11
2023-02-15T23:47:52.265Z,10.33
2023-02-15T23:50:23.164Z,10.02
2023-02-15T23:52:52.674Z,9.96
2023-02-15T23:55:21.433Z,9.93
2023-02-15T23:57:50.197Z,10.02
